createdAt,value
2023-05-24T00:00:23.159Z,0.00
2023-05-24T00:01:23.118Z,0.00
2023-05-24T00:02:23.213Z,0.00
2023-05-24T00:03:23.234Z,0.00
2023-05-24T00:04:23.231Z,0.00
2023-05-24T00:05:22.978Z,0.00
2023-05-24T00:06:22.948Z,0.00
2023-05-24T00:07:22.917Z,0.00
2023-05-24T00:08:22.948Z,0.00
2023-05-24T00:09:22.850Z,0.00
2023-05-24T00:10:22.824Z,0.00
2023-05-24T00:11:22.788Z,0.00
2023-05-24T00:12:22.762Z,0.00
2023-05-24T00:13:22.718Z,0.00
2023-05-24T00:14:22.739Z,0.00
2023-05-24T00:15:22.667Z,0.00
2023-05-24T00:16:22.700Z,0.00
2023-05-24T00:17:22.635Z,0.00
2023-05-24T00:18:22.604Z,0.00
2023-05-24T00:19:22.534Z,0.00
2023-05-24T00:20:22.525Z,0.00
2023-05-24T00:21:22.458Z,0.00
2023-05-24T00:22:22.424Z,0.00
2023-05-24T00:23:22.459Z,0.00
2023-05-24T00:24:22.363Z,0.00
2023-05-24T00:25:22.341Z,0.00
2023-05-24T00:26:22.318Z,0.00
2023-05-24T00:27:22.249Z,0.00
2023-05-24T00:28:22.208Z,0.00
2023-05-24T00:29:22.254Z,0.00
2023-05-24T00:30:22.152Z,0.00
2023-05-24T00:31:22.134Z,0.00
2023-05-24T00:32:22.104Z,0.00
2023-05-24T00:33:22.059Z,0.00
2023-05-24T00:34:22.026Z,0.00
2023-05-24T00:35:22.047Z,0.00
2023-05-24T00:36:21.964Z,0.00
2023-05-24T00:37:21.919Z,0.00
2023-05-24T00:38:21.897Z,0.00
2023-05-24T00:39:21.857Z,0.00
2023-05-24T00:40:21.833Z,0.00
2023-05-24T00:41:21.852Z,0.00
2023-05-24T00:42:21.760Z,0.00
2023-05-24T00:43:21.750Z,0.00
2023-05-24T00:44:21.710Z,0.00
2023-05-24T00:45:21.664Z,0.00
2023-05-24T00:46:21.652Z,0.00
2023-05-24T00:47:21.697Z,0.00
2023-05-24T00:48:21.562Z,0.00
2023-05-24T00:49:21.523Z,0.00
2023-05-24T00:50:21.501Z,0.00
2023-05-24T00:51:21.542Z,0.00
2023-05-24T00:52:21.476Z,0.00
2023-05-24T00:53:21.405Z,0.00
2023-05-24T00:54:21.363Z,0.00
2023-05-24T00:55:21.319Z,0.00
2023-05-24T00:56:21.301Z,0.00
2023-05-24T00:57:21.326Z,0.00
2023-05-24T00:58:21.232Z,0.00
2023-05-24T00:59:21.198Z,0.00
2023-05-24T01:00:21.175Z,0.00
2023-05-24T01:01:21.819Z,0.00
2023-05-24T01:02:21.706Z,0.00
2023-05-24T01:03:21.192Z,0.00
2023-05-24T01:04:21.032Z,0.00
2023-05-24T01:05:21.023Z,0.00
2023-05-24T01:06:20.985Z,0.00
2023-05-24T01:07:20.947Z,0.00
2023-05-24T01:08:20.912Z,0.00
2023-05-24T01:09:20.938Z,0.00
2023-05-24T01:10:20.843Z,0.00
2023-05-24T01:11:22.683Z,0.00
2023-05-24T01:12:20.798Z,0.00
2023-05-24T01:13:20.735Z,0.00
2023-05-24T01:14:20.784Z,0.00
2023-05-24T01:15:20.705Z,0.00
2023-05-24T01:16:20.682Z,0.00
2023-05-24T01:17:20.611Z,0.00
2023-05-24T01:18:21.185Z,0.00
2023-05-24T01:19:20.551Z,0.00
2023-05-24T01:20:20.656Z,0.00
2023-05-24T01:21:20.471Z,0.00
2023-05-24T01:22:20.441Z,0.00
2023-05-24T01:23:20.413Z,0.00
2023-05-24T01:24:20.417Z,0.00
2023-05-24T01:25:20.346Z,0.00
2023-05-24T01:26:20.378Z,0.00
2023-05-24T01:27:20.270Z,0.00
2023-05-24T01:28:20.242Z,0.00
2023-05-24T01:29:20.209Z,0.00
2023-05-24T01:30:20.214Z,0.00
2023-05-24T01:31:20.229Z,0.00
2023-05-24T01:32:20.238Z,0.00
2023-05-24T01:33:20.155Z,0.00
2023-05-24T01:34:20.054Z,0.00
2023-05-24T01:35:20.016Z,0.00
2023-05-24T01:36:20.003Z,0.00
2023-05-24T01:37:19.944Z,0.00
2023-05-24T01:38:19.908Z,0.00
2023-05-24T01:39:19.933Z,0.00
2023-05-24T01:40:19.898Z,0.00
2023-05-24T01:41:19.814Z,0.00
2023-05-24T01:42:19.783Z,0.00
2023-05-24T01:43:20.303Z,0.00
2023-05-24T01:44:19.876Z,0.00
2023-05-24T01:45:19.689Z,0.00
2023-05-24T01:46:19.693Z,0.00
2023-05-24T01:47:19.627Z,0.00
2023-05-24T01:48:19.643Z,0.00
2023-05-24T01:49:19.545Z,0.00
2023-05-24T01:50:19.588Z,0.00
2023-05-24T01:51:19.489Z,0.00
2023-05-24T01:52:19.501Z,0.00
2023-05-24T01:53:19.422Z,0.00
2023-05-24T01:54:19.390Z,0.00
2023-05-24T01:55:19.350Z,0.00
2023-05-24T01:56:19.378Z,0.00
2023-05-24T01:57:19.285Z,0.00
2023-05-24T01:58:19.253Z,0.00
2023-05-24T01:59:19.289Z,0.00
2023-05-24T02:00:19.232Z,0.00
2023-05-24T02:01:19.196Z,0.00
2023-05-24T02:02:19.173Z,0.00
2023-05-24T02:03:19.109Z,0.00
2023-05-24T02:04:19.058Z,0.00
2023-05-24T02:05:19.084Z,0.00
2023-05-24T02:06:19.014Z,0.00
2023-05-24T02:07:18.951Z,0.00
2023-05-24T02:08:18.923Z,0.00
2023-05-24T02:09:18.888Z,0.00
2023-05-24T02:10:18.982Z,0.00
2023-05-24T02:11:18.834Z,0.00
2023-05-24T02:12:18.801Z,0.00
2023-05-24T02:13:18.766Z,0.00
2023-05-24T02:14:18.732Z,0.00
2023-05-24T02:15:18.748Z,0.00
2023-05-24T02:16:18.726Z,0.00
2023-05-24T02:17:18.631Z,0.00
2023-05-24T02:18:18.635Z,0.00
2023-05-24T02:19:18.564Z,0.00
2023-05-24T02:20:18.635Z,0.00
2023-05-24T02:21:18.498Z,0.00
2023-05-24T02:22:18.465Z,0.00
2023-05-24T02:23:18.436Z,0.00
2023-05-24T02:24:18.404Z,0.00
2023-05-24T02:25:18.367Z,0.00
2023-05-24T02:26:18.399Z,0.00
2023-05-24T02:27:18.303Z,0.00
2023-05-24T02:28:18.265Z,0.00
2023-05-24T02:29:18.232Z,0.00
2023-05-24T02:30:18.200Z,4.00
2023-05-24T02:31:18.186Z,4.00
2023-05-24T02:32:18.198Z,0.00
2023-05-24T02:33:18.107Z,0.00
2023-05-24T02:34:18.072Z,4.00
2023-05-24T02:35:18.031Z,4.00
2023-05-24T02:36:18.004Z,0.00
2023-05-24T02:37:17.971Z,4.00
2023-05-24T02:38:17.996Z,8.00
2023-05-24T02:39:17.902Z,4.00
2023-05-24T02:40:17.898Z,8.00
2023-05-24T02:41:17.859Z,8.00
2023-05-24T02:42:17.807Z,8.00
2023-05-24T02:43:17.772Z,8.00
2023-05-24T02:44:17.813Z,12.00
2023-05-24T02:45:17.719Z,12.00
2023-05-24T02:46:17.689Z,12.00
2023-05-24T02:47:18.315Z,12.00
2023-05-24T02:48:17.642Z,16.00
2023-05-24T02:49:17.565Z,16.00
2023-05-24T02:50:17.604Z,20.00
2023-05-24T02:51:17.501Z,20.00
2023-05-24T02:52:17.475Z,24.00
2023-05-24T02:53:17.457Z,28.00
2023-05-24T02:54:17.411Z,28.00
2023-05-24T02:55:17.372Z,32.00
2023-05-24T02:56:17.416Z,36.00
2023-05-24T02:57:17.312Z,40.00
2023-05-24T02:58:17.276Z,44.00
2023-05-24T02:59:17.250Z,44.00
2023-05-24T03:00:17.230Z,48.00
2023-05-24T03:01:17.233Z,48.00
2023-05-24T03:02:17.202Z,60.00
2023-05-24T03:03:17.171Z,60.00
2023-05-24T03:04:17.077Z,64.00
2023-05-24T03:05:17.042Z,68.00
2023-05-24T03:06:17.016Z,76.00
2023-05-24T03:07:17.095Z,80.00
2023-05-24T03:08:16.947Z,80.00
2023-05-24T03:09:16.934Z,88.00
2023-05-24T03:10:16.869Z,96.00
2023-05-24T03:11:17.815Z,100.00
2023-05-24T03:12:16.869Z,100.00
2023-05-24T03:13:16.781Z,112.00
2023-05-24T03:14:16.757Z,120.00
2023-05-24T03:15:16.711Z,124.00
2023-05-24T03:16:16.724Z,136.00
2023-05-24T03:17:16.696Z,140.00
2023-05-24T03:18:16.613Z,148.00
2023-05-24T03:19:16.613Z,160.00
2023-05-24T03:20:16.570Z,164.00
2023-05-24T03:21:16.584Z,180.00
2023-05-24T03:22:16.573Z,192.00
2023-05-24T03:23:16.439Z,196.00
2023-05-24T03:24:17.212Z,204.00
2023-05-24T03:25:16.398Z,208.00
2023-05-24T03:26:16.354Z,212.00
2023-05-24T03:27:16.378Z,228.00
2023-05-24T03:28:16.293Z,240.00
2023-05-24T03:29:16.256Z,252.00
2023-05-24T03:30:16.229Z,268.00
2023-05-24T03:31:16.189Z,284.00
2023-05-24T03:32:16.158Z,312.00
2023-05-24T03:33:16.213Z,336.00
2023-05-24T03:34:16.827Z,356.00
2023-05-24T03:35:16.061Z,368.00
2023-05-24T03:36:16.017Z,372.00
2023-05-24T03:37:15.995Z,380.00
2023-05-24T03:38:15.965Z,380.00
2023-05-24T03:39:15.983Z,396.00
2023-05-24T03:40:15.900Z,408.00
2023-05-24T03:41:15.858Z,404.00
2023-05-24T03:42:15.834Z,404.00
2023-05-24T03:43:15.804Z,412.00
2023-05-24T03:44:15.776Z,416.00
2023-05-24T03:45:21.501Z,416.00
2023-05-24T03:46:15.731Z,412.00
2023-05-24T03:47:15.670Z,412.00
2023-05-24T03:48:15.622Z,428.00
2023-05-24T03:49:15.654Z,444.00
2023-05-24T03:50:15.557Z,452.00
2023-05-24T03:51:15.529Z,452.00
2023-05-24T03:52:15.512Z,456.00
2023-05-24T03:53:15.469Z,480.00
2023-05-24T03:54:15.491Z,512.00
2023-05-24T03:55:15.390Z,532.00
2023-05-24T03:56:15.367Z,552.00
2023-05-24T03:57:15.347Z,568.00
2023-05-24T03:58:15.302Z,580.00
2023-05-24T03:59:15.262Z,604.00
2023-05-24T04:00:15.278Z,640.00
2023-05-24T04:03:07.874Z,728.00
2023-05-24T04:03:46.863Z,744.00
2023-05-24T04:04:46.729Z,772.00
2023-05-24T04:05:46.826Z,788.00
2023-05-24T04:06:46.655Z,812.00
2023-05-24T04:07:46.673Z,832.00
2023-05-24T04:08:46.599Z,840.00
2023-05-24T04:09:46.561Z,848.00
2023-05-24T04:10:46.579Z,872.00
2023-05-24T04:11:46.568Z,896.00
2023-05-24T04:12:46.479Z,908.00
2023-05-24T04:13:46.428Z,928.00
2023-05-24T04:14:52.311Z,952.00
2023-05-24T04:15:46.355Z,980.00
2023-05-24T04:16:46.407Z,1012.00
2023-05-24T04:17:49.332Z,1048.00
2023-05-24T04:18:46.367Z,1072.00
2023-05-24T04:19:46.231Z,1076.00
2023-05-24T04:20:46.202Z,1072.00
2023-05-24T04:21:46.228Z,1048.00
2023-05-24T04:22:46.209Z,1008.00
2023-05-24T04:23:46.111Z,1012.00
2023-05-24T04:24:46.083Z,1044.00
2023-05-24T04:25:46.031Z,1080.00
2023-05-24T04:26:46.006Z,1104.00
2023-05-24T04:27:45.967Z,1116.00
2023-05-24T04:28:45.987Z,1120.00
2023-05-24T04:29:45.896Z,1112.00
2023-05-24T04:30:45.863Z,1104.00
2023-05-24T04:31:46.841Z,1124.00
2023-05-24T04:32:45.826Z,1192.00
2023-05-24T04:33:45.778Z,1228.00
2023-05-24T04:34:46.016Z,1228.00
2023-05-24T04:35:45.713Z,1188.00
2023-05-24T04:36:45.693Z,1184.00
2023-05-24T04:37:45.663Z,1228.00
2023-05-24T04:38:45.616Z,1292.00
2023-05-24T04:39:45.591Z,1332.00
2023-05-24T04:40:45.620Z,1360.00
2023-05-24T04:41:45.528Z,1420.00
2023-05-24T04:42:45.480Z,1436.00
2023-05-24T04:43:45.471Z,1480.00
2023-05-24T04:44:45.412Z,1552.00
2023-05-24T04:45:45.437Z,1568.00
2023-05-24T04:46:45.401Z,1580.00
2023-05-24T04:47:45.392Z,1600.00
2023-05-24T04:48:45.281Z,1656.00
2023-05-24T04:49:45.247Z,1728.00
2023-05-24T04:50:45.215Z,1816.00
2023-05-24T04:51:45.289Z,1932.00
2023-05-24T04:52:45.221Z,2032.00
2023-05-24T04:53:45.114Z,2028.00
2023-05-24T04:54:45.081Z,1964.00
2023-05-24T04:55:45.046Z,1988.00
2023-05-24T04:56:45.026Z,1972.00
2023-05-24T04:57:45.041Z,1908.00
2023-05-24T04:58:44.952Z,1852.00
2023-05-24T04:59:45.010Z,1844.00
2023-05-24T05:00:44.905Z,1884.00
2023-05-24T05:01:44.896Z,1920.00
2023-05-24T05:02:44.895Z,1944.00
2023-05-24T05:03:44.877Z,1960.00
2023-05-24T05:04:44.902Z,2040.00
2023-05-24T05:05:44.742Z,2160.00
2023-05-24T05:06:44.701Z,2316.00
2023-05-24T05:07:44.662Z,2448.00
2023-05-24T05:08:44.627Z,2576.00
2023-05-24T05:09:44.594Z,2728.00
2023-05-24T05:10:44.648Z,2832.00
2023-05-24T05:11:44.518Z,2880.00
2023-05-24T05:12:44.493Z,2896.00
2023-05-24T05:13:44.462Z,2912.00
2023-05-24T05:14:44.431Z,2944.00
2023-05-24T05:15:44.393Z,2976.00
2023-05-24T05:16:44.427Z,3008.00
2023-05-24T05:17:44.369Z,3016.00
2023-05-24T05:18:44.299Z,3032.00
2023-05-24T05:19:44.258Z,3052.00
2023-05-24T05:20:44.419Z,3112.00
2023-05-24T05:21:44.253Z,3228.00
2023-05-24T05:22:44.155Z,3344.00
2023-05-24T05:23:44.131Z,3476.00
2023-05-24T05:24:44.091Z,3644.00
2023-05-24T05:25:44.062Z,3852.00
2023-05-24T05:26:44.084Z,3992.00
2023-05-24T05:27:44.010Z,4004.00
2023-05-24T05:28:44.028Z,3960.00
2023-05-24T05:29:43.935Z,3932.00
2023-05-24T05:30:44.058Z,3856.00
2023-05-24T05:31:43.886Z,3644.00
2023-05-24T05:32:44.001Z,3404.00
2023-05-24T05:33:43.805Z,3292.00
2023-05-24T05:34:43.772Z,3276.00
2023-05-24T05:35:43.744Z,3268.00
2023-05-24T05:36:43.709Z,3284.00
2023-05-24T05:37:43.674Z,3340.00
2023-05-24T05:38:43.715Z,3444.00
2023-05-24T05:39:43.614Z,3612.00
2023-05-24T05:40:43.697Z,3844.00
2023-05-24T05:41:46.629Z,4132.00
2023-05-24T05:42:43.517Z,4384.00
2023-05-24T05:43:43.497Z,4580.00
2023-05-24T05:44:43.509Z,4720.00
2023-05-24T05:45:43.495Z,4812.00
2023-05-24T05:46:43.386Z,4848.00
2023-05-24T05:47:43.420Z,4792.00
2023-05-24T05:48:46.215Z,4616.00
2023-05-24T05:49:43.368Z,4404.00
2023-05-24T05:50:43.447Z,4216.00
2023-05-24T05:51:43.218Z,4104.00
2023-05-24T05:52:43.190Z,4052.00
2023-05-24T05:53:43.156Z,4100.00
2023-05-24T05:54:43.179Z,4196.00
2023-05-24T05:55:43.100Z,4408.00
2023-05-24T05:56:43.054Z,4632.00
2023-05-24T05:57:43.038Z,4836.00
2023-05-24T05:58:43.003Z,4972.00
2023-05-24T05:59:42.960Z,5056.00
2023-05-24T06:00:43.047Z,5092.00
2023-05-24T06:01:42.899Z,5072.00
2023-05-24T06:02:42.909Z,5016.00
2023-05-24T06:03:43.184Z,4960.00
2023-05-24T06:04:42.855Z,4864.00
2023-05-24T06:05:42.780Z,4680.00
2023-05-24T06:06:42.816Z,4612.00
2023-05-24T06:07:42.706Z,4560.00
2023-05-24T06:08:42.680Z,4412.00
2023-05-24T06:09:42.726Z,4216.00
2023-05-24T06:10:42.867Z,4236.00
2023-05-24T06:11:42.575Z,4340.00
2023-05-24T06:12:42.601Z,4392.00
2023-05-24T06:13:42.514Z,4340.00
2023-05-24T06:14:42.486Z,4152.00
2023-05-24T06:15:42.472Z,4096.00
2023-05-24T06:16:42.481Z,4428.00
2023-05-24T06:17:42.485Z,4400.00
2023-05-24T06:18:50.024Z,4472.00
2023-05-24T06:19:42.334Z,4852.00
2023-05-24T06:20:42.553Z,5088.00
2023-05-24T06:21:42.250Z,5256.00
2023-05-24T06:22:42.228Z,5360.00
2023-05-24T06:23:42.188Z,5452.00
2023-05-24T06:24:42.221Z,5628.00
2023-05-24T06:25:42.127Z,5896.00
2023-05-24T06:26:42.116Z,6040.00
2023-05-24T06:27:42.062Z,6020.00
2023-05-24T06:28:42.050Z,5996.00
2023-05-24T06:29:42.085Z,5964.00
2023-05-24T06:30:42.230Z,6000.00
2023-05-24T06:31:41.977Z,6052.00
2023-05-24T06:32:41.958Z,6112.00
2023-05-24T06:33:46.776Z,6212.00
2023-05-24T06:34:41.997Z,6276.00
2023-05-24T06:35:41.820Z,6296.00
2023-05-24T06:36:41.782Z,6296.00
2023-05-24T06:37:41.741Z,6300.00
2023-05-24T06:38:41.714Z,6092.00
2023-05-24T06:39:41.682Z,5744.00
2023-05-24T06:40:41.942Z,5720.00
2023-05-24T06:41:41.634Z,5836.00
2023-05-24T06:42:41.603Z,6152.00
2023-05-24T06:43:41.587Z,6276.00
2023-05-24T06:44:41.534Z,6304.00
2023-05-24T06:45:41.577Z,6372.00
2023-05-24T06:46:41.535Z,6388.00
2023-05-24T06:47:41.488Z,6392.00
2023-05-24T06:48:41.494Z,6384.00
2023-05-24T06:49:41.406Z,6364.00
2023-05-24T06:50:42.826Z,6420.00
2023-05-24T06:51:41.303Z,6484.00
2023-05-24T06:52:41.327Z,6320.00
2023-05-24T06:53:41.245Z,6388.00
2023-05-24T06:54:41.220Z,6604.00
2023-05-24T06:55:41.261Z,6764.00
2023-05-24T06:56:41.140Z,6800.00
2023-05-24T06:57:41.122Z,6716.00
2023-05-24T06:58:41.141Z,6588.00
2023-05-24T06:59:41.113Z,6636.00
2023-05-24T07:00:41.352Z,7012.00
2023-05-24T07:01:41.107Z,7408.00
2023-05-24T07:02:40.991Z,7724.00
2023-05-24T07:03:40.927Z,7928.00
2023-05-24T07:04:41.054Z,8004.00
2023-05-24T07:05:40.867Z,8004.00
2023-05-24T07:06:40.844Z,7984.00
2023-05-24T07:07:40.812Z,8060.00
2023-05-24T07:08:40.778Z,8252.00
2023-05-24T07:09:40.739Z,8344.00
2023-05-24T07:10:41.234Z,8244.00
2023-05-24T07:11:40.707Z,8416.00
2023-05-24T07:12:40.665Z,8848.00
2023-05-24T07:13:40.617Z,8984.00
2023-05-24T07:14:40.586Z,8856.00
2023-05-24T07:15:40.564Z,8788.00
2023-05-24T07:16:40.628Z,8664.00
2023-05-24T07:17:40.538Z,8624.00
2023-05-24T07:18:40.459Z,8500.00
2023-05-24T07:19:40.420Z,8568.00
2023-05-24T07:20:40.670Z,8740.00
2023-05-24T07:21:40.377Z,8836.00
2023-05-24T07:22:40.390Z,8800.00
2023-05-24T07:23:40.296Z,8548.00
2023-05-24T07:24:40.277Z,8472.00
2023-05-24T07:25:40.251Z,8376.00
2023-05-24T07:26:40.231Z,8288.00
2023-05-24T07:27:40.178Z,8156.00
2023-05-24T07:28:40.205Z,7940.00
2023-05-24T07:29:40.116Z,7840.00
2023-05-24T07:30:40.081Z,7960.00
2023-05-24T07:31:40.155Z,8012.00
2023-05-24T07:32:40.083Z,8120.00
2023-05-24T07:33:39.991Z,8424.00
2023-05-24T07:34:40.028Z,8836.00
2023-05-24T07:35:39.957Z,9084.00
2023-05-24T07:36:39.896Z,9096.00
2023-05-24T07:37:39.882Z,8800.00
2023-05-24T07:38:39.842Z,8240.00
2023-05-24T07:39:39.815Z,7760.00
2023-05-24T07:40:39.937Z,7892.00
2023-05-24T07:41:39.748Z,8656.00
2023-05-24T07:42:39.719Z,8804.00
2023-05-24T07:43:39.694Z,9132.00
2023-05-24T07:44:39.662Z,9116.00
2023-05-24T07:45:39.778Z,9044.00
2023-05-24T07:46:39.681Z,8384.00
2023-05-24T07:47:39.610Z,7484.00
2023-05-24T07:48:39.538Z,7288.00
2023-05-24T07:49:39.507Z,8068.00
2023-05-24T07:50:39.484Z,9272.00
2023-05-24T07:51:39.456Z,9408.00
2023-05-24T07:52:39.483Z,9480.00
2023-05-24T07:53:39.415Z,9436.00
2023-05-24T07:54:39.381Z,9208.00
2023-05-24T07:55:39.329Z,9724.00
2023-05-24T07:56:39.294Z,10320.00
2023-05-24T07:57:39.262Z,10280.00
2023-05-24T07:58:39.306Z,10208.00
2023-05-24T07:59:39.202Z,10356.00
2023-05-24T08:00:39.165Z,10268.00
2023-05-24T08:01:39.154Z,10080.00
2023-05-24T08:02:39.214Z,9952.00
2023-05-24T08:03:39.981Z,9940.00
2023-05-24T08:04:39.109Z,10032.00
2023-05-24T08:05:39.022Z,10260.00
2023-05-24T08:06:39.007Z,10556.00
2023-05-24T08:07:38.964Z,10944.00
2023-05-24T08:08:38.938Z,11324.00
2023-05-24T08:09:38.963Z,11744.00
2023-05-24T08:10:38.883Z,12112.00
2023-05-24T08:11:38.844Z,12168.00
2023-05-24T08:12:38.813Z,12064.00
2023-05-24T08:13:38.783Z,12036.00
2023-05-24T08:14:38.744Z,12020.00
2023-05-24T08:15:38.775Z,11608.00
2023-05-24T08:16:38.712Z,11492.00
2023-05-24T08:17:38.777Z,12008.00
2023-05-24T08:18:38.630Z,12372.00
2023-05-24T08:19:38.652Z,12128.00
2023-05-24T08:20:38.813Z,11904.00
2023-05-24T08:21:38.590Z,11728.00
2023-05-24T08:22:38.620Z,11656.00
2023-05-24T08:23:38.487Z,11872.00
2023-05-24T08:24:38.449Z,12420.00
2023-05-24T08:25:38.420Z,12972.00
2023-05-24T08:26:38.391Z,12932.00
2023-05-24T08:27:38.422Z,12428.00
2023-05-24T08:28:38.438Z,12440.00
2023-05-24T08:29:38.345Z,12632.00
2023-05-24T08:30:38.275Z,13440.00
2023-05-24T08:31:38.287Z,13668.00
2023-05-24T08:32:38.408Z,13636.00
2023-05-24T08:33:38.243Z,13156.00
2023-05-24T08:34:38.168Z,12884.00
2023-05-24T08:35:38.325Z,13400.00
2023-05-24T08:36:38.099Z,13128.00
2023-05-24T08:37:38.072Z,13488.00
2023-05-24T08:38:38.037Z,14072.00
2023-05-24T08:39:38.072Z,14224.00
2023-05-24T08:40:37.994Z,14252.00
2023-05-24T08:41:37.950Z,14388.00
2023-05-24T08:42:37.938Z,14644.00
2023-05-24T08:43:37.913Z,14768.00
2023-05-24T08:44:37.891Z,15080.00
2023-05-24T08:45:37.999Z,15384.00
2023-05-24T08:46:37.856Z,15612.00
2023-05-24T08:47:37.804Z,15740.00
2023-05-24T08:48:37.850Z,15448.00
2023-05-24T08:49:37.721Z,15064.00
2023-05-24T08:50:37.692Z,14368.00
2023-05-24T08:51:37.827Z,13836.00
2023-05-24T08:52:37.661Z,13308.00
2023-05-24T08:53:37.623Z,12544.00
2023-05-24T08:54:37.600Z,12052.00
2023-05-24T08:55:37.563Z,12084.00
2023-05-24T08:56:37.563Z,12368.00
2023-05-24T08:57:37.555Z,12380.00
2023-05-24T08:58:37.471Z,12320.00
2023-05-24T08:59:37.459Z,11952.00
2023-05-24T09:00:37.418Z,11476.00
2023-05-24T09:01:37.405Z,10640.00
2023-05-24T09:02:37.365Z,9772.00
2023-05-24T09:03:37.758Z,9004.00
2023-05-24T09:04:37.302Z,8536.00
2023-05-24T09:05:37.276Z,8340.00
2023-05-24T09:06:37.248Z,8256.00
2023-05-24T09:07:37.372Z,8108.00
2023-05-24T09:08:37.220Z,8100.00
2023-05-24T09:09:37.218Z,8712.00
2023-05-24T09:10:49.263Z,9032.00
2023-05-24T09:11:39.380Z,9100.00
2023-05-24T09:12:38.764Z,9168.00
2023-05-24T09:13:37.041Z,9076.00
2023-05-24T09:14:37.062Z,8864.00
2023-05-24T09:15:37.006Z,8632.00
2023-05-24T09:16:37.094Z,8232.00
2023-05-24T09:17:37.120Z,7684.00
2023-05-24T09:18:36.921Z,7204.00
2023-05-24T09:19:37.479Z,7108.00
2023-05-24T09:20:37.164Z,7444.00
2023-05-24T09:21:36.820Z,7988.00
2023-05-24T09:22:39.590Z,8596.00
2023-05-24T09:23:36.775Z,9076.00
2023-05-24T09:24:36.741Z,9420.00
2023-05-24T09:25:36.708Z,9564.00
2023-05-24T09:26:36.742Z,9604.00
2023-05-24T09:27:36.652Z,9676.00
2023-05-24T09:28:36.612Z,9716.00
2023-05-24T09:29:36.601Z,9656.00
2023-05-24T09:30:36.579Z,9728.00
2023-05-24T09:31:36.562Z,10104.00
2023-05-24T09:32:36.579Z,10652.00
2023-05-24T09:33:36.465Z,11108.00
2023-05-24T09:34:36.433Z,11420.00
2023-05-24T09:35:36.399Z,11408.00
2023-05-24T09:36:36.370Z,11400.00
2023-05-24T09:37:36.347Z,11548.00
2023-05-24T09:38:36.766Z,11988.00
2023-05-24T09:39:36.307Z,12744.00
2023-05-24T09:40:36.259Z,13400.00
2023-05-24T09:41:36.225Z,13940.00
2023-05-24T09:42:36.220Z,14460.00
2023-05-24T09:43:36.244Z,15052.00
2023-05-24T09:44:36.197Z,15788.00
2023-05-24T09:45:36.102Z,16672.00
2023-05-24T09:46:36.142Z,17184.00
2023-05-24T09:47:36.057Z,17152.00
2023-05-24T09:48:36.019Z,16704.00
2023-05-24T09:49:36.060Z,16156.00
2023-05-24T09:50:36.001Z,15896.00
2023-05-24T09:51:35.994Z,15736.00
2023-05-24T09:52:36.081Z,15956.00
2023-05-24T09:53:35.890Z,16416.00
2023-05-24T09:54:35.850Z,16640.00
2023-05-24T09:55:36.047Z,16608.00
2023-05-24T09:56:36.498Z,16384.00
2023-05-24T09:57:35.770Z,15776.00
2023-05-24T09:58:35.741Z,15468.00
2023-05-24T09:59:35.724Z,15444.00
2023-05-24T10:00:35.675Z,15664.00
2023-05-24T10:01:35.880Z,15692.00
2023-05-24T10:02:41.590Z,15616.00
2023-05-24T10:03:35.762Z,15616.00
2023-05-24T10:04:35.587Z,15748.00
2023-05-24T10:05:35.570Z,16044.00
2023-05-24T10:06:35.504Z,16960.00
2023-05-24T10:07:35.548Z,17440.00
2023-05-24T10:08:35.455Z,17696.00
2023-05-24T10:09:35.428Z,17600.00
2023-05-24T10:10:35.405Z,17504.00
2023-05-24T10:11:43.045Z,17344.00
2023-05-24T10:12:35.338Z,17216.00
2023-05-24T10:13:35.594Z,17088.00
2023-05-24T10:14:35.297Z,17120.00
2023-05-24T10:15:35.257Z,17312.00
2023-05-24T10:16:36.060Z,17408.00
2023-05-24T10:17:35.236Z,17536.00
2023-05-24T10:18:35.212Z,17632.00
2023-05-24T10:19:35.199Z,17696.00
2023-05-24T10:20:35.176Z,17792.00
2023-05-24T10:21:35.240Z,18048.00
2023-05-24T10:22:35.072Z,18240.00
2023-05-24T10:23:35.038Z,18080.00
2023-05-24T10:24:35.007Z,17632.00
2023-05-24T10:25:35.070Z,16896.00
2023-05-24T10:26:34.958Z,15860.00
2023-05-24T10:27:34.921Z,15224.00
2023-05-24T10:28:34.905Z,14364.00
2023-05-24T10:29:34.876Z,12972.00
2023-05-24T10:30:34.893Z,11788.00
2023-05-24T10:31:34.884Z,10812.00
2023-05-24T10:32:34.812Z,10516.00
2023-05-24T10:33:34.770Z,10940.00
2023-05-24T10:34:34.733Z,11496.00
2023-05-24T10:35:34.707Z,12144.00
2023-05-24T10:36:34.685Z,12932.00
2023-05-24T10:37:34.706Z,13692.00
2023-05-24T10:38:34.620Z,14144.00
2023-05-24T10:39:34.654Z,14372.00
2023-05-24T10:40:34.578Z,14420.00
2023-05-24T10:41:34.581Z,14516.00
2023-05-24T10:42:34.531Z,14708.00
2023-05-24T10:43:34.482Z,14920.00
2023-05-24T10:44:34.535Z,15204.00
2023-05-24T10:45:34.431Z,15608.00
2023-05-24T10:46:34.448Z,16256.00
2023-05-24T10:47:35.381Z,16640.00
2023-05-24T10:48:34.360Z,16768.00
2023-05-24T10:49:34.330Z,16736.00
2023-05-24T10:50:34.343Z,16608.00
2023-05-24T10:51:34.285Z,16448.00
2023-05-24T10:52:34.240Z,16512.00
2023-05-24T10:53:34.215Z,16864.00
2023-05-24T10:54:34.191Z,17248.00
2023-05-24T10:55:34.198Z,17600.00
2023-05-24T10:56:34.136Z,17824.00
2023-05-24T10:57:34.133Z,17792.00
2023-05-24T10:58:34.103Z,17600.00
2023-05-24T10:59:34.047Z,17600.00
2023-05-24T11:00:48.351Z,17952.00
2023-05-24T11:01:34.174Z,18464.00
2023-05-24T11:02:34.080Z,18720.00
2023-05-24T11:03:33.984Z,18848.00
2023-05-24T11:04:33.926Z,19200.00
2023-05-24T11:05:33.925Z,19712.00
2023-05-24T11:06:34.021Z,20320.00
2023-05-24T11:07:33.837Z,20736.00
2023-05-24T11:08:33.802Z,21056.00
2023-05-24T11:09:33.817Z,20576.00
2023-05-24T11:10:33.748Z,20224.00
2023-05-24T11:11:33.731Z,20000.00
2023-05-24T11:12:33.798Z,19648.00
2023-05-24T11:13:33.703Z,19136.00
2023-05-24T11:14:33.656Z,18528.00
2023-05-24T11:15:33.630Z,18144.00
2023-05-24T11:16:33.659Z,18112.00
2023-05-24T11:17:33.618Z,18432.00
2023-05-24T11:18:33.615Z,19072.00
2023-05-24T11:19:33.554Z,19680.00
2023-05-24T11:20:33.534Z,20000.00
2023-05-24T11:21:33.475Z,19968.00
2023-05-24T11:22:33.455Z,19872.00
2023-05-24T11:23:34.469Z,19968.00
2023-05-24T11:24:33.463Z,20160.00
2023-05-24T11:25:33.380Z,19936.00
2023-05-24T11:26:33.394Z,19456.00
2023-05-24T11:27:33.350Z,19008.00
2023-05-24T11:28:33.344Z,18880.00
2023-05-24T11:29:34.322Z,18944.00
2023-05-24T11:30:33.302Z,19072.00
2023-05-24T11:31:33.283Z,19616.00
2023-05-24T11:32:33.233Z,20320.00
2023-05-24T11:33:33.185Z,20640.00
2023-05-24T11:34:33.153Z,20672.00
2023-05-24T11:35:33.132Z,20576.00
2023-05-24T11:36:33.275Z,20512.00
2023-05-24T11:37:45.521Z,20448.00
2023-05-24T11:38:33.049Z,20576.00
2023-05-24T11:39:33.061Z,20768.00
2023-05-24T11:40:33.016Z,20672.00
2023-05-24T11:41:32.981Z,20480.00
2023-05-24T11:42:33.566Z,20224.00
2023-05-24T11:43:32.943Z,19968.00
2023-05-24T11:44:32.906Z,19744.00
2023-05-24T11:45:32.893Z,19872.00
2023-05-24T11:46:32.909Z,20096.00
2023-05-24T11:47:32.893Z,20160.00
2023-05-24T11:48:32.862Z,20096.00
2023-05-24T11:49:32.787Z,20256.00
2023-05-24T11:50:39.058Z,20672.00
2023-05-24T11:51:32.844Z,20768.00
2023-05-24T11:52:32.716Z,20896.00
2023-05-24T11:53:32.748Z,20832.00
2023-05-24T11:54:32.717Z,20608.00
2023-05-24T11:55:32.649Z,20064.00
2023-05-24T11:56:33.834Z,19808.00
2023-05-24T11:57:32.597Z,19872.00
2023-05-24T11:58:32.687Z,19872.00
2023-05-24T11:59:32.553Z,19648.00
2023-05-24T12:00:32.529Z,19264.00
2023-05-24T12:01:32.500Z,18752.00
2023-05-24T12:02:32.577Z,18272.00
2023-05-24T12:03:32.676Z,17984.00
2023-05-24T12:05:32.418Z,17216.00
2023-05-24T12:06:32.374Z,17216.00
2023-05-24T12:07:32.352Z,17024.00
2023-05-24T12:08:32.327Z,16288.00
2023-05-24T12:09:32.308Z,15200.00
2023-05-24T12:10:32.336Z,14184.00
2023-05-24T12:11:32.269Z,13500.00
2023-05-24T12:12:42.517Z,13016.00
2023-05-24T12:13:32.217Z,12732.00
2023-05-24T12:14:32.256Z,12452.00
2023-05-24T12:15:32.297Z,12144.00
2023-05-24T12:16:32.231Z,12052.00
2023-05-24T12:17:32.146Z,12136.00
2023-05-24T12:18:32.274Z,12260.00
2023-05-24T12:19:33.981Z,12480.00